sensor_id;sensor_type;location;lat;lon;timestamp;temperature;humidity
9033;DHT22;4551;53.164;8.210;2023-06-14T00:02:06;18.40;99.90
9033;DHT22;4551;53.164;8.210;2023-06-14T00:04:35;18.50;99.90
9033;DHT22;4551;53.164;8.210;2023-06-14T00:07:05;18.50;99.90
9033;DHT22;4551;53.164;8.210;2023-06-14T00:09:35;18.40;99.90
9033;DHT22;4551;53.164;8.210;2023-06-14T00:12:03;18.40;99.90
9033;DHT22;4551;53.164;8.210;2023-06-14T00:14:32;18.30;99.90
9033;DHT22;4551;53.164;8.210;2023-06-14T00:17:02;18.20;99.90
9033;DHT22;4551;53.164;8.210;2023-06-14T00:19:30;18.10;99.90
9033;DHT22;4551;53.164;8.210;2023-06-14T00:21:59;18.10;99.90
9033;DHT22;4551;53.164;8.210;2023-06-14T00:24:27;18.10;99.90
9033;DHT22;4551;53.164;8.210;2023-06-14T00:26:56;18.10;99.90
9033;DHT22;4551;53.164;8.210;2023-06-14T00:29:24;18.00;99.90
9033;DHT22;4551;53.164;8.210;2023-06-14T00:31:52;18.00;99.90
9033;DHT22;4551;53.164;8.210;2023-06-14T00:34:21;17.90;99.90
9033;DHT22;4551;53.164;8.210;2023-06-14T00:36:49;17.80;99.90
9033;DHT22;4551;53.164;8.210;2023-06-14T00:39:17;17.80;99.90
9033;DHT22;4551;53.164;8.210;2023-06-14T00:41:46;17.80;99.90
9033;DHT22;4551;53.164;8.210;2023-06-14T00:44:14;17.70;99.90
9033;DHT22;4551;53.164;8.210;2023-06-14T00:46:44;17.70;99.90
9033;DHT22;4551;53.164;8.210;2023-06-14T00:49:13;17.60;99.90
9033;DHT22;4551;53.164;8.210;2023-06-14T00:51:46;17.60;99.90
9033;DHT22;4551;53.164;8.210;2023-06-14T00:54:15;17.60;99.90
9033;DHT22;4551;53.164;8.210;2023-06-14T00:56:43;17.50;99.90
9033;DHT22;4551;53.164;8.210;2023-06-14T00:59:11;17.50;99.90
9033;DHT22;4551;53.164;8.210;2023-06-14T01:01:39;17.40;99.90
9033;DHT22;4551;53.164;8.210;2023-06-14T01:04:07;17.40;99.90
9033;DHT22;4551;53.164;8.210;2023-06-14T01:06:38;17.30;99.90
9033;DHT22;4551;53.164;8.210;2023-06-14T01:09:13;17.30;99.90
9033;DHT22;4551;53.164;8.210;2023-06-14T01:11:45;17.30;99.90
9033;DHT22;4551;53.164;8.210;2023-06-14T01:14:14;17.20;99.90
9033;DHT22;4551;53.164;8.210;2023-06-14T01:16:47;17.20;99.90
9033;DHT22;4551;53.164;8.210;2023-06-14T01:19:19;17.20;99.90
9033;DHT22;4551;53.164;8.210;2023-06-14T01:21:49;17.20;99.90
9033;DHT22;4551;53.164;8.210;2023-06-14T01:24:19;17.10;99.90
9033;DHT22;4551;53.164;8.210;2023-06-14T01:26:50;17.10;99.90
9033;DHT22;4551;53.164;8.210;2023-06-14T01:29:22;17.00;99.90
9033;DHT22;4551;53.164;8.210;2023-06-14T01:31:50;17.00;99.90
9033;DHT22;4551;53.164;8.210;2023-06-14T01:34:18;17.00;99.90
9033;DHT22;4551;53.164;8.210;2023-06-14T01:36:46;16.90;99.90
9033;DHT22;4551;53.164;8.210;2023-06-14T01:39:15;16.90;99.90
9033;DHT22;4551;53.164;8.210;2023-06-14T01:41:44;16.90;99.90
9033;DHT22;4551;53.164;8.210;2023-06-14T01:44:13;16.90;99.90
9033;DHT22;4551;53.164;8.210;2023-06-14T01:46:42;16.80;99.90
9033;DHT22;4551;53.164;8.210;2023-06-14T01:49:11;16.80;99.90
9033;DHT22;4551;53.164;8.210;2023-06-14T01:51:39;16.80;99.90
9033;DHT22;4551;53.164;8.210;2023-06-14T01:54:07;16.70;99.90
9033;DHT22;4551;53.164;8.210;2023-06-14T01:56:35;16.80;99.90
9033;DHT22;4551;53.164;8.210;2023-06-14T01:59:04;16.70;99.90
9033;DHT22;4551;53.164;8.210;2023-06-14T02:01:32;16.70;99.90
9033;DHT22;4551;53.164;8.210;2023-06-14T02:04:04;16.60;99.90
9033;DHT22;4551;53.164;8.210;2023-06-14T02:06:32;16.60;99.90
9033;DHT22;4551;53.164;8.210;2023-06-14T02:09:01;16.50;99.90
9033;DHT22;4551;53.164;8.210;2023-06-14T02:11:30;16.50;99.90
9033;DHT22;4551;53.164;8.210;2023-06-14T02:13:58;16.50;99.90
9033;DHT22;4551;53.164;8.210;2023-06-14T02:16:28;16.50;99.90
9033;DHT22;4551;53.164;8.210;2023-06-14T02:18:57;16.50;99.90
9033;DHT22;4551;53.164;8.210;2023-06-14T02:21:25;16.50;99.90
9033;DHT22;4551;53.164;8.210;2023-06-14T02:23:53;16.40;99.90
9033;DHT22;4551;53.164;8.210;2023-06-14T02:26:21;16.40;99.90
9033;DHT22;4551;53.164;8.210;2023-06-14T02:28:50;16.40;99.90
9033;DHT22;4551;53.164;8.210;2023-06-14T02:31:18;16.40;99.90
9033;DHT22;4551;53.164;8.210;2023-06-14T02:33:47;16.40;99.90
9033;DHT22;4551;53.164;8.210;2023-06-14T02:36:15;16.30;99.90
9033;DHT22;4551;53.164;8.210;2023-06-14T02:38:43;16.30;99.90
9033;DHT22;4551;53.164;8.210;2023-06-14T02:41:12;16.30;99.90
9033;DHT22;4551;53.164;8.210;2023-06-14T02:43:40;16.20;99.90
9033;DHT22;4551;53.164;8.210;2023-06-14T02:46:08;16.20;99.90
9033;DHT22;4551;53.164;8.210;2023-06-14T02:48:36;16.30;99.90
9033;DHT22;4551;53.164;8.210;2023-06-14T02:51:06;16.20;99.90
9033;DHT22;4551;53.164;8.210;2023-06-14T02:53:35;16.20;99.90
9033;DHT22;4551;53.164;8.210;2023-06-14T02:56:03;16.20;99.90
9033;DHT22;4551;53.164;8.210;2023-06-14T02:58:31;16.10;99.90
9033;DHT22;4551;53.164;8.210;2023-06-14T03:00:59;16.10;99.90
9033;DHT22;4551;53.164;8.210;2023-06-14T03:03:30;16.10;99.90
9033;DHT22;4551;53.164;8.210;2023-06-14T03:05:58;16.10;99.90
9033;DHT22;4551;53.164;8.210;2023-06-14T03:08:32;16.00;99.90
9033;DHT22;4551;53.164;8.210;2023-06-14T03:11:05;16.00;99.90
9033;DHT22;4551;53.164;8.210;2023-06-14T03:13:33;16.00;99.90
9033;DHT22;4551;53.164;8.210;2023-06-14T03:16:01;16.00;99.90
9033;DHT22;4551;53.164;8.210;2023-06-14T03:18:30;16.00;99.90
9033;DHT22;4551;53.164;8.210;2023-06-14T03:21:02;16.00;99.90
9033;DHT22;4551;53.164;8.210;2023-06-14T03:23:30;16.00;99.90
9033;DHT22;4551;53.164;8.210;2023-06-14T03:25:59;15.90;99.90
9033;DHT22;4551;53.164;8.210;2023-06-14T03:28:27;15.90;99.90
9033;DHT22;4551;53.164;8.210;2023-06-14T03:30:55;15.90;99.90
9033;DHT22;4551;53.164;8.210;2023-06-14T03:33:23;15.90;99.90
9033;DHT22;4551;53.164;8.210;2023-06-14T03:35:52;15.70;99.90
9033;DHT22;4551;53.164;8.210;2023-06-14T03:38:21;15.90;99.90
9033;DHT22;4551;53.164;8.210;2023-06-14T03:40:49;15.90;99.90
9033;DHT22;4551;53.164;8.210;2023-06-14T03:43:19;15.90;99.90
9033;DHT22;4551;53.164;8.210;2023-06-14T03:45:47;15.90;99.90
9033;DHT22;4551;53.164;8.210;2023-06-14T03:48:15;15.90;99.90
9033;DHT22;4551;53.164;8.210;2023-06-14T03:50:43;15.80;99.90
9033;DHT22;4551;53.164;8.210;2023-06-14T03:53:11;15.80;99.90
9033;DHT22;4551;53.164;8.210;2023-06-14T03:55:39;15.80;99.90
9033;DHT22;4551;53.164;8.210;2023-06-14T03:58:11;15.80;99.90
9033;DHT22;4551;53.164;8.210;2023-06-14T04:00:41;15.80;99.90
9033;DHT22;4551;53.164;8.210;2023-06-14T04:03:10;15.80;99.90
9033;DHT22;4551;53.164;8.210;2023-06-14T04:05:40;15.80;99.90
9033;DHT22;4551;53.164;8.210;2023-06-14T04:08:09;15.70;99.90
9033;DHT22;4551;53.164;8.210;2023-06-14T04:10:37;15.70;99.90
9033;DHT22;4551;53.164;8.210;2023-06-14T04:13:05;15.80;99.90
9033;DHT22;4551;53.164;8.210;2023-06-14T04:15:34;15.80;99.90
9033;DHT22;4551;53.164;8.210;2023-06-14T04:18:04;15.80;99.90
9033;DHT22;4551;53.164;8.210;2023-06-14T04:20:35;15.80;99.90
9033;DHT22;4551;53.164;8.210;2023-06-14T04:23:12;15.80;99.90
9033;DHT22;4551;53.164;8.210;2023-06-14T04:25:41;15.80;99.90
9033;DHT22;4551;53.164;8.210;2023-06-14T04:28:12;15.80;99.90
9033;DHT22;4551;53.164;8.210;2023-06-14T04:30:40;15.80;99.90
9033;DHT22;4551;53.164;8.210;2023-06-14T04:33:10;15.80;99.90
9033;DHT22;4551;53.164;8.210;2023-06-14T04:35:38;15.80;99.90
9033;DHT22;4551;53.164;8.210;2023-06-14T04:38:07;15.80;99.90
9033;DHT22;4551;53.164;8.210;2023-06-14T04:40:36;15.90;99.90
9033;DHT22;4551;53.164;8.210;2023-06-14T04:43:10;15.90;99.90
9033;DHT22;4551;53.164;8.210;2023-06-14T04:45:39;15.90;99.90
9033;DHT22;4551;53.164;8.210;2023-06-14T04:48:07;16.00;99.90
9033;DHT22;4551;53.164;8.210;2023-06-14T04:53:22;16.00;99.90
9033;DHT22;4551;53.164;8.210;2023-06-14T04:55:50;16.10;99.90
9033;DHT22;4551;53.164;8.210;2023-06-14T04:58:19;16.10;99.90
9033;DHT22;4551;53.164;8.210;2023-06-14T05:00:47;16.10;99.90
9033;DHT22;4551;53.164;8.210;2023-06-14T05:03:15;16.10;99.90
9033;DHT22;4551;53.164;8.210;2023-06-14T05:05:45;16.20;99.90
9033;DHT22;4551;53.164;8.210;2023-06-14T05:08:13;16.20;99.90
9033;DHT22;4551;53.164;8.210;2023-06-14T05:10:43;16.20;99.90
9033;DHT22;4551;53.164;8.210;2023-06-14T05:13:11;16.20;99.90
9033;DHT22;4551;53.164;8.210;2023-06-14T05:15:39;16.30;99.90
9033;DHT22;4551;53.164;8.210;2023-06-14T05:18:14;16.30;99.90
9033;DHT22;4551;53.164;8.210;2023-06-14T05:20:43;16.30;99.90
9033;DHT22;4551;53.164;8.210;2023-06-14T05:23:11;16.40;99.90
9033;DHT22;4551;53.164;8.210;2023-06-14T05:25:43;16.40;99.90
9033;DHT22;4551;53.164;8.210;2023-06-14T05:28:12;16.50;99.90
9033;DHT22;4551;53.164;8.210;2023-06-14T05:30:40;16.50;99.90
9033;DHT22;4551;53.164;8.210;2023-06-14T05:33:08;16.60;99.90
9033;DHT22;4551;53.164;8.210;2023-06-14T05:35:36;16.60;99.90
9033;DHT22;4551;53.164;8.210;2023-06-14T05:38:05;16.60;99.90
9033;DHT22;4551;53.164;8.210;2023-06-14T05:40:34;16.70;99.90
9033;DHT22;4551;53.164;8.210;2023-06-14T05:43:04;16.70;99.90
9033;DHT22;4551;53.164;8.210;2023-06-14T05:45:31;16.70;99.90
9033;DHT22;4551;53.164;8.210;2023-06-14T05:48:00;16.70;99.90
9033;DHT22;4551;53.164;8.210;2023-06-14T05:50:28;16.80;99.90
9033;DHT22;4551;53.164;8.210;2023-06-14T05:52:56;16.90;99.90
9033;DHT22;4551;53.164;8.210;2023-06-14T05:55:24;16.90;99.90
9033;DHT22;4551;53.164;8.210;2023-06-14T05:57:52;16.90;99.90
9033;DHT22;4551;53.164;8.210;2023-06-14T06:00:22;16.90;99.90
9033;DHT22;4551;53.164;8.210;2023-06-14T06:02:50;16.90;99.90
9033;DHT22;4551;53.164;8.210;2023-06-14T06:05:18;17.00;99.90
9033;DHT22;4551;53.164;8.210;2023-06-14T06:07:46;17.00;99.90
9033;DHT22;4551;53.164;8.210;2023-06-14T06:10:14;17.10;99.90
9033;DHT22;4551;53.164;8.210;2023-06-14T06:12:43;17.10;99.90
9033;DHT22;4551;53.164;8.210;2023-06-14T06:15:11;17.10;99.90
9033;DHT22;4551;53.164;8.210;2023-06-14T06:17:41;17.20;99.90
9033;DHT22;4551;53.164;8.210;2023-06-14T06:20:22;17.30;99.90
9033;DHT22;4551;53.164;8.210;2023-06-14T06:22:55;17.30;99.90
9033;DHT22;4551;53.164;8.210;2023-06-14T06:25:23;17.30;99.90
9033;DHT22;4551;53.164;8.210;2023-06-14T06:27:52;17.40;99.90
9033;DHT22;4551;53.164;8.210;2023-06-14T06:30:21;17.40;99.90
9033;DHT22;4551;53.164;8.210;2023-06-14T06:32:50;17.50;99.90
9033;DHT22;4551;53.164;8.210;2023-06-14T06:35:20;17.60;99.90
9033;DHT22;4551;53.164;8.210;2023-06-14T06:37:49;17.60;99.90
9033;DHT22;4551;53.164;8.210;2023-06-14T06:40:17;17.70;99.90
9033;DHT22;4551;53.164;8.210;2023-06-14T06:42:45;17.70;99.90
9033;DHT22;4551;53.164;8.210;2023-06-14T06:45:13;17.70;99.90
9033;DHT22;4551;53.164;8.210;2023-06-14T06:47:41;17.80;99.90
9033;DHT22;4551;53.164;8.210;2023-06-14T06:50:11;17.90;99.90
9033;DHT22;4551;53.164;8.210;2023-06-14T06:52:39;17.90;99.90
9033;DHT22;4551;53.164;8.210;2023-06-14T06:55:07;18.00;99.90
9033;DHT22;4551;53.164;8.210;2023-06-14T06:57:35;18.10;99.90
9033;DHT22;4551;53.164;8.210;2023-06-14T07:00:04;18.10;99.90
9033;DHT22;4551;53.164;8.210;2023-06-14T07:02:34;18.20;99.90
9033;DHT22;4551;53.164;8.210;2023-06-14T07:05:03;18.20;99.90
9033;DHT22;4551;53.164;8.210;2023-06-14T07:07:33;18.30;99.90
9033;DHT22;4551;53.164;8.210;2023-06-14T07:10:02;18.30;99.90
9033;DHT22;4551;53.164;8.210;2023-06-14T07:12:31;18.30;99.90
9033;DHT22;4551;53.164;8.210;2023-06-14T07:15:01;18.40;99.90
9033;DHT22;4551;53.164;8.210;2023-06-14T07:17:29;18.50;99.90
9033;DHT22;4551;53.164;8.210;2023-06-14T07:19:58;18.50;99.90
9033;DHT22;4551;53.164;8.210;2023-06-14T07:22:26;18.50;99.90
9033;DHT22;4551;53.164;8.210;2023-06-14T07:24:55;18.50;99.90
9033;DHT22;4551;53.164;8.210;2023-06-14T07:27:23;18.60;99.90
9033;DHT22;4551;53.164;8.210;2023-06-14T07:29:51;18.60;99.90
9033;DHT22;4551;53.164;8.210;2023-06-14T07:32:19;18.60;99.90
9033;DHT22;4551;53.164;8.210;2023-06-14T07:34:48;18.70;99.90
9033;DHT22;4551;53.164;8.210;2023-06-14T07:37:16;18.70;99.90
9033;DHT22;4551;53.164;8.210;2023-06-14T07:39:44;18.80;99.90
9033;DHT22;4551;53.164;8.210;2023-06-14T07:42:20;18.80;99.90
9033;DHT22;4551;53.164;8.210;2023-06-14T07:44:48;18.90;99.90
9033;DHT22;4551;53.164;8.210;2023-06-14T07:47:17;18.90;99.90
9033;DHT22;4551;53.164;8.210;2023-06-14T07:49:45;19.00;99.90
9033;DHT22;4551;53.164;8.210;2023-06-14T07:52:13;19.00;99.90
9033;DHT22;4551;53.164;8.210;2023-06-14T07:54:41;19.10;99.90
9033;DHT22;4551;53.164;8.210;2023-06-14T07:57:11;19.10;99.90
9033;DHT22;4551;53.164;8.210;2023-06-14T07:59:41;19.10;99.90
9033;DHT22;4551;53.164;8.210;2023-06-14T08:02:09;19.20;99.90
9033;DHT22;4551;53.164;8.210;2023-06-14T08:04:37;19.30;99.90
9033;DHT22;4551;53.164;8.210;2023-06-14T08:07:05;19.30;99.90
9033;DHT22;4551;53.164;8.210;2023-06-14T08:09:34;19.30;99.90
9033;DHT22;4551;53.164;8.210;2023-06-14T08:12:04;19.40;99.90
9033;DHT22;4551;53.164;8.210;2023-06-14T08:14:34;19.50;99.90
9033;DHT22;4551;53.164;8.210;2023-06-14T08:17:03;19.50;99.90
9033;DHT22;4551;53.164;8.210;2023-06-14T08:19:31;19.60;99.90
9033;DHT22;4551;53.164;8.210;2023-06-14T08:21:59;19.60;99.90
9033;DHT22;4551;53.164;8.210;2023-06-14T08:24:28;19.70;99.90
9033;DHT22;4551;53.164;8.210;2023-06-14T08:26:56;19.70;99.90
9033;DHT22;4551;53.164;8.210;2023-06-14T08:29:27;20.00;99.90
9033;DHT22;4551;53.164;8.210;2023-06-14T08:31:57;19.80;99.90
9033;DHT22;4551;53.164;8.210;2023-06-14T08:34:27;19.90;99.90
9033;DHT22;4551;53.164;8.210;2023-06-14T08:36:55;19.90;99.90
9033;DHT22;4551;53.164;8.210;2023-06-14T08:39:23;20.00;99.90
9033;DHT22;4551;53.164;8.210;2023-06-14T08:41:51;20.00;99.90
9033;DHT22;4551;53.164;8.210;2023-06-14T08:44:20;20.10;99.90
9033;DHT22;4551;53.164;8.210;2023-06-14T08:46:48;20.20;99.90
9033;DHT22;4551;53.164;8.210;2023-06-14T08:49:16;20.20;99.90
9033;DHT22;4551;53.164;8.210;2023-06-14T08:51:45;20.30;99.90
9033;DHT22;4551;53.164;8.210;2023-06-14T08:54:18;20.40;99.90
9033;DHT22;4551;53.164;8.210;2023-06-14T08:56:47;20.40;99.90
9033;DHT22;4551;53.164;8.210;2023-06-14T08:59:15;20.40;99.90
9033;DHT22;4551;53.164;8.210;2023-06-14T09:01:44;20.50;99.90
9033;DHT22;4551;53.164;8.210;2023-06-14T09:04:33;20.60;99.90
9033;DHT22;4551;53.164;8.210;2023-06-14T09:07:04;20.60;99.90
9033;DHT22;4551;53.164;8.210;2023-06-14T09:09:33;20.60;99.90
9033;DHT22;4551;53.164;8.210;2023-06-14T09:12:07;20.70;99.90
9033;DHT22;4551;53.164;8.210;2023-06-14T09:14:37;20.80;99.90
9033;DHT22;4551;53.164;8.210;2023-06-14T09:17:07;20.90;99.90
9033;DHT22;4551;53.164;8.210;2023-06-14T09:19:35;20.80;99.90
9033;DHT22;4551;53.164;8.210;2023-06-14T09:22:05;20.90;99.90
9033;DHT22;4551;53.164;8.210;2023-06-14T09:24:38;21.00;99.90
9033;DHT22;4551;53.164;8.210;2023-06-14T09:27:06;21.00;99.90
9033;DHT22;4551;53.164;8.210;2023-06-14T09:29:34;21.10;99.90
9033;DHT22;4551;53.164;8.210;2023-06-14T09:32:03;21.10;99.90
9033;DHT22;4551;53.164;8.210;2023-06-14T09:34:31;21.20;99.90
9033;DHT22;4551;53.164;8.210;2023-06-14T09:37:00;21.10;99.90
9033;DHT22;4551;53.164;8.210;2023-06-14T09:39:29;21.20;99.90
9033;DHT22;4551;53.164;8.210;2023-06-14T09:41:58;21.20;99.90
9033;DHT22;4551;53.164;8.210;2023-06-14T09:44:26;21.30;99.90
9033;DHT22;4551;53.164;8.210;2023-06-14T09:46:56;21.30;99.90
9033;DHT22;4551;53.164;8.210;2023-06-14T09:49:24;21.40;99.90
9033;DHT22;4551;53.164;8.210;2023-06-14T09:51:55;21.40;99.90
9033;DHT22;4551;53.164;8.210;2023-06-14T09:54:25;21.50;99.90
9033;DHT22;4551;53.164;8.210;2023-06-14T09:56:55;21.60;99.90
9033;DHT22;4551;53.164;8.210;2023-06-14T09:59:27;21.70;99.90
9033;DHT22;4551;53.164;8.210;2023-06-14T10:01:58;21.70;99.90
9033;DHT22;4551;53.164;8.210;2023-06-14T10:04:30;21.90;99.90
9033;DHT22;4551;53.164;8.210;2023-06-14T10:06:59;21.90;99.90
9033;DHT22;4551;53.164;8.210;2023-06-14T10:09:28;21.90;99.90
9033;DHT22;4551;53.164;8.210;2023-06-14T10:12:00;21.90;99.90
9033;DHT22;4551;53.164;8.210;2023-06-14T10:14:28;22.00;99.90
9033;DHT22;4551;53.164;8.210;2023-06-14T10:17:03;22.10;99.90
9033;DHT22;4551;53.164;8.210;2023-06-14T10:19:34;22.10;99.90
9033;DHT22;4551;53.164;8.210;2023-06-14T10:22:06;22.10;99.90
9033;DHT22;4551;53.164;8.210;2023-06-14T10:24:37;22.20;99.90
9033;DHT22;4551;53.164;8.210;2023-06-14T10:27:07;22.30;99.90
9033;DHT22;4551;53.164;8.210;2023-06-14T10:29:48;22.30;99.90
9033;DHT22;4551;53.164;8.210;2023-06-14T10:32:30;22.40;99.90
9033;DHT22;4551;53.164;8.210;2023-06-14T10:35:00;22.50;99.90
9033;DHT22;4551;53.164;8.210;2023-06-14T10:37:28;22.50;99.90
9033;DHT22;4551;53.164;8.210;2023-06-14T10:39:56;22.60;99.90
9033;DHT22;4551;53.164;8.210;2023-06-14T10:42:31;22.60;99.90
9033;DHT22;4551;53.164;8.210;2023-06-14T10:45:00;22.60;99.90
9033;DHT22;4551;53.164;8.210;2023-06-14T10:47:30;22.70;99.90
9033;DHT22;4551;53.164;8.210;2023-06-14T10:50:02;22.70;99.90
9033;DHT22;4551;53.164;8.210;2023-06-14T10:52:32;22.80;99.90
9033;DHT22;4551;53.164;8.210;2023-06-14T10:55:03;22.90;99.90
9033;DHT22;4551;53.164;8.210;2023-06-14T10:57:34;23.00;99.90
9033;DHT22;4551;53.164;8.210;2023-06-14T11:00:05;23.00;99.90
9033;DHT22;4551;53.164;8.210;2023-06-14T11:02:47;23.10;99.90
9033;DHT22;4551;53.164;8.210;2023-06-14T11:05:20;23.20;99.90
9033;DHT22;4551;53.164;8.210;2023-06-14T11:07:58;23.30;99.90
9033;DHT22;4551;53.164;8.210;2023-06-14T11:10:31;23.40;99.90
9033;DHT22;4551;53.164;8.210;2023-06-14T11:13:04;23.40;99.90
9033;DHT22;4551;53.164;8.210;2023-06-14T11:15:36;23.60;99.90
9033;DHT22;4551;53.164;8.210;2023-06-14T11:18:05;23.90;99.90
9033;DHT22;4551;53.164;8.210;2023-06-14T11:20:34;23.70;99.90
9033;DHT22;4551;53.164;8.210;2023-06-14T11:23:02;23.70;99.90
9033;DHT22;4551;53.164;8.210;2023-06-14T11:25:30;23.80;99.90
9033;DHT22;4551;53.164;8.210;2023-06-14T11:27:59;23.90;99.90
9033;DHT22;4551;53.164;8.210;2023-06-14T11:30:28;23.90;99.90
9033;DHT22;4551;53.164;8.210;2023-06-14T11:32:56;23.90;99.90
9033;DHT22;4551;53.164;8.210;2023-06-14T11:35:25;24.10;99.90
9033;DHT22;4551;53.164;8.210;2023-06-14T11:37:54;24.20;99.90
9033;DHT22;4551;53.164;8.210;2023-06-14T11:40:23;24.40;99.90
9033;DHT22;4551;53.164;8.210;2023-06-14T11:42:58;24.40;99.90
9033;DHT22;4551;53.164;8.210;2023-06-14T11:45:26;24.60;99.90
9033;DHT22;4551;53.164;8.210;2023-06-14T11:47:56;24.70;99.90
9033;DHT22;4551;53.164;8.210;2023-06-14T11:50:25;24.80;99.90
9033;DHT22;4551;53.164;8.210;2023-06-14T11:52:53;24.80;99.90
9033;DHT22;4551;53.164;8.210;2023-06-14T11:55:22;24.90;99.90
9033;DHT22;4551;53.164;8.210;2023-06-14T11:57:50;25.10;99.90
9033;DHT22;4551;53.164;8.210;2023-06-14T12:00:19;25.10;99.90
9033;DHT22;4551;53.164;8.210;2023-06-14T12:02:55;25.30;99.90
9033;DHT22;4551;53.164;8.210;2023-06-14T12:05:24;25.40;99.90
9033;DHT22;4551;53.164;8.210;2023-06-14T12:07:57;25.50;99.90
9033;DHT22;4551;53.164;8.210;2023-06-14T12:10:26;25.60;99.90
9033;DHT22;4551;53.164;8.210;2023-06-14T12:12:56;25.70;99.90
9033;DHT22;4551;53.164;8.210;2023-06-14T12:15:27;25.80;99.90
9033;DHT22;4551;53.164;8.210;2023-06-14T12:17:57;25.90;99.90
9033;DHT22;4551;53.164;8.210;2023-06-14T12:20:28;26.00;99.90
9033;DHT22;4551;53.164;8.210;2023-06-14T12:22:58;26.00;99.90
9033;DHT22;4551;53.164;8.210;2023-06-14T12:25:28;26.00;99.90
9033;DHT22;4551;53.164;8.210;2023-06-14T12:27:59;26.10;99.90
9033;DHT22;4551;53.164;8.210;2023-06-14T12:30:27;26.20;99.90
9033;DHT22;4551;53.164;8.210;2023-06-14T12:32:55;26.30;99.90
9033;DHT22;4551;53.164;8.210;2023-06-14T12:35:25;26.30;99.90
9033;DHT22;4551;53.164;8.210;2023-06-14T12:37:53;26.40;99.90
9033;DHT22;4551;53.164;8.210;2023-06-14T12:40:21;26.50;99.90
9033;DHT22;4551;53.164;8.210;2023-06-14T12:42:50;26.60;99.30
9033;DHT22;4551;53.164;8.210;2023-06-14T12:45:18;26.70;99.80
9033;DHT22;4551;53.164;8.210;2023-06-14T12:47:46;26.80;99.70
9033;DHT22;4551;53.164;8.210;2023-06-14T12:50:14;26.90;99.70
9033;DHT22;4551;53.164;8.210;2023-06-14T12:52:44;26.80;99.90
9033;DHT22;4551;53.164;8.210;2023-06-14T12:55:12;26.70;99.90
9033;DHT22;4551;53.164;8.210;2023-06-14T12:57:41;26.70;99.60
9033;DHT22;4551;53.164;8.210;2023-06-14T13:00:09;26.70;99.70
9033;DHT22;4551;53.164;8.210;2023-06-14T13:02:40;26.80;99.80
9033;DHT22;4551;53.164;8.210;2023-06-14T13:05:08;26.90;99.00
9033;DHT22;4551;53.164;8.210;2023-06-14T13:07:36;27.00;99.30
9033;DHT22;4551;53.164;8.210;2023-06-14T13:10:06;27.20;99.90
9033;DHT22;4551;53.164;8.210;2023-06-14T13:12:34;27.20;99.70
9033;DHT22;4551;53.164;8.210;2023-06-14T13:15:02;27.30;99.90
9033;DHT22;4551;53.164;8.210;2023-06-14T13:17:31;27.30;99.10
9033;DHT22;4551;53.164;8.210;2023-06-14T13:20:00;27.70;98.60
9033;DHT22;4551;53.164;8.210;2023-06-14T13:22:28;27.50;99.10
9033;DHT22;4551;53.164;8.210;2023-06-14T13:24:56;27.40;98.80
9033;DHT22;4551;53.164;8.210;2023-06-14T13:27:25;27.40;97.80
9033;DHT22;4551;53.164;8.210;2023-06-14T13:29:53;27.30;98.80
9033;DHT22;4551;53.164;8.210;2023-06-14T13:32:21;27.40;98.10
9033;DHT22;4551;53.164;8.210;2023-06-14T13:34:50;27.60;98.40
9033;DHT22;4551;53.164;8.210;2023-06-14T13:37:18;27.80;98.30
9033;DHT22;4551;53.164;8.210;2023-06-14T13:39:46;28.00;97.90
9033;DHT22;4551;53.164;8.210;2023-06-14T13:42:14;28.10;98.30
9033;DHT22;4551;53.164;8.210;2023-06-14T13:44:44;28.30;98.30
9033;DHT22;4551;53.164;8.210;2023-06-14T13:47:12;28.50;98.90
9033;DHT22;4551;53.164;8.210;2023-06-14T13:49:40;28.60;98.80
9033;DHT22;4551;53.164;8.210;2023-06-14T13:52:08;28.80;98.40
9033;DHT22;4551;53.164;8.210;2023-06-14T13:54:36;29.00;97.80
9033;DHT22;4551;53.164;8.210;2023-06-14T13:57:04;29.20;98.30
9033;DHT22;4551;53.164;8.210;2023-06-14T13:59:33;29.30;98.40
9033;DHT22;4551;53.164;8.210;2023-06-14T14:02:02;29.60;98.40
9033;DHT22;4551;53.164;8.210;2023-06-14T14:04:31;29.60;97.00
9033;DHT22;4551;53.164;8.210;2023-06-14T14:06:59;29.60;97.00
9033;DHT22;4551;53.164;8.210;2023-06-14T14:09:27;29.40;96.70
9033;DHT22;4551;53.164;8.210;2023-06-14T14:11:55;29.30;96.90
9033;DHT22;4551;53.164;8.210;2023-06-14T14:14:24;29.00;96.50
9033;DHT22;4551;53.164;8.210;2023-06-14T14:16:52;28.80;96.00
9033;DHT22;4551;53.164;8.210;2023-06-14T14:19:22;28.60;96.40
9033;DHT22;4551;53.164;8.210;2023-06-14T14:21:53;28.50;96.50
9033;DHT22;4551;53.164;8.210;2023-06-14T14:24:21;28.50;96.70
9033;DHT22;4551;53.164;8.210;2023-06-14T14:26:50;28.60;96.30
9033;DHT22;4551;53.164;8.210;2023-06-14T14:29:20;28.90;97.00
9033;DHT22;4551;53.164;8.210;2023-06-14T14:31:53;28.80;96.10
9033;DHT22;4551;53.164;8.210;2023-06-14T14:34:23;28.90;96.10
9033;DHT22;4551;53.164;8.210;2023-06-14T14:36:51;29.10;96.00
9033;DHT22;4551;53.164;8.210;2023-06-14T14:39:20;29.40;96.40
9033;DHT22;4551;53.164;8.210;2023-06-14T14:41:48;29.80;96.60
9033;DHT22;4551;53.164;8.210;2023-06-14T14:44:17;30.10;95.70
9033;DHT22;4551;53.164;8.210;2023-06-14T14:46:46;30.00;95.70
9033;DHT22;4551;53.164;8.210;2023-06-14T14:49:14;30.20;94.90
9033;DHT22;4551;53.164;8.210;2023-06-14T14:51:43;30.20;95.10
9033;DHT22;4551;53.164;8.210;2023-06-14T14:54:12;30.10;95.50
9033;DHT22;4551;53.164;8.210;2023-06-14T14:56:40;30.00;95.10
9033;DHT22;4551;53.164;8.210;2023-06-14T14:59:08;29.80;94.70
9033;DHT22;4551;53.164;8.210;2023-06-14T15:01:36;29.50;94.90
9033;DHT22;4551;53.164;8.210;2023-06-14T15:04:04;29.30;95.10
9033;DHT22;4551;53.164;8.210;2023-06-14T15:06:32;29.00;95.00
9033;DHT22;4551;53.164;8.210;2023-06-14T15:09:06;28.70;95.00
9033;DHT22;4551;53.164;8.210;2023-06-14T15:11:35;28.50;94.60
9033;DHT22;4551;53.164;8.210;2023-06-14T15:14:03;28.30;95.10
9033;DHT22;4551;53.164;8.210;2023-06-14T15:16:31;28.20;95.50
9033;DHT22;4551;53.164;8.210;2023-06-14T15:18:59;28.10;95.20
9033;DHT22;4551;53.164;8.210;2023-06-14T15:21:27;28.10;94.90
9033;DHT22;4551;53.164;8.210;2023-06-14T15:23:55;28.10;95.10
9033;DHT22;4551;53.164;8.210;2023-06-14T15:26:24;28.00;94.90
9033;DHT22;4551;53.164;8.210;2023-06-14T15:28:52;28.20;95.60
9033;DHT22;4551;53.164;8.210;2023-06-14T15:31:20;28.80;95.50
9033;DHT22;4551;53.164;8.210;2023-06-14T15:33:50;30.00;95.40
9033;DHT22;4551;53.164;8.210;2023-06-14T15:36:18;30.10;95.40
9033;DHT22;4551;53.164;8.210;2023-06-14T15:38:46;30.60;95.00
9033;DHT22;4551;53.164;8.210;2023-06-14T15:41:14;30.60;94.50
9033;DHT22;4551;53.164;8.210;2023-06-14T15:43:44;30.60;94.60
9033;DHT22;4551;53.164;8.210;2023-06-14T15:46:12;30.60;94.70
9033;DHT22;4551;53.164;8.210;2023-06-14T15:48:40;30.90;94.80
9033;DHT22;4551;53.164;8.210;2023-06-14T15:51:09;31.20;94.60
9033;DHT22;4551;53.164;8.210;2023-06-14T15:53:37;31.50;94.30
9033;DHT22;4551;53.164;8.210;2023-06-14T15:56:05;31.80;94.10
9033;DHT22;4551;53.164;8.210;2023-06-14T15:58:33;32.10;94.10
9033;DHT22;4551;53.164;8.210;2023-06-14T16:01:03;32.30;93.30
9033;DHT22;4551;53.164;8.210;2023-06-14T16:03:31;32.50;93.30
9033;DHT22;4551;53.164;8.210;2023-06-14T16:05:59;32.50;91.90
9033;DHT22;4551;53.164;8.210;2023-06-14T16:08:27;32.30;91.20
9033;DHT22;4551;53.164;8.210;2023-06-14T16:11:06;32.00;91.50
9033;DHT22;4551;53.164;8.210;2023-06-14T16:13:34;32.00;92.10
9033;DHT22;4551;53.164;8.210;2023-06-14T16:16:04;31.90;91.20
9033;DHT22;4551;53.164;8.210;2023-06-14T16:18:32;31.70;91.30